CheckWX is a tool to help pilots better visualize weather data.  It is not intended as a substitute for an official pre-flight weather briefing.

20:12:05 UTC

KPZQ METAR
Presque Isle County Airport
Rogers City, Michigan, USA
Current

16 mins ago

KPZQ 231956Z AUTO 31019G25KT 10SM OVC021 06/02 A2986 RMK AO2 T00610019
Observed
Apr-23 @ 19:56 UTC
Wind
  • 310° at 19 KTS
  • Gusting to 25 KTS
Visibility
10 SM
Flight Rules
MVFR
Cloud Levels
  • Overcast at 2,100' AGL
Temperature
C / 43°F
Dewpoint
C / 36°F
Humidity
76%
Altimeter
29.86" Hg
Pressure
1011.22 hPa
Previous

37 mins ago

KPZQ 231935Z AUTO 30014G26KT 10SM OVC021 06/02 A2986 RMK AO2 T00590020
Observed
Apr-23 @ 19:35 UTC
Wind
  • 300° at 14 KTS
  • Gusting to 26 KTS
Visibility
10 SM
Flight Rules
MVFR
Cloud Levels
  • Overcast at 2,100' AGL
Temperature
C / 43°F
Dewpoint
C / 36°F
Humidity
76%
Altimeter
29.86" Hg
Pressure
1011.22 hPa
Previous

56 mins ago

KPZQ 231916Z AUTO 30016G27KT 10SM OVC019 06/02 A2985 RMK AO2 T00590021
Observed
Apr-23 @ 19:16 UTC
Wind
  • 300° at 16 KTS
  • Gusting to 27 KTS
Visibility
10 SM
Flight Rules
MVFR
Cloud Levels
  • Overcast at 1,900' AGL
Temperature
C / 43°F
Dewpoint
C / 36°F
Humidity
76%
Altimeter
29.85" Hg
Pressure
1010.82 hPa